sensor_id;sensor_type;location;lat;lon;timestamp;pressure;altitude;pressure_sealevel;temperature;humidity
8051;BME280;4068;42.158;24.732;2023-12-04T00:00:10;100062.06;;;5.84;100.00
8051;BME280;4068;42.158;24.732;2023-12-04T00:02:36;100098.66;;;6.07;100.00
8051;BME280;4068;42.158;24.732;2023-12-04T00:05:04;100088.38;;;6.02;100.00
8051;BME280;4068;42.158;24.732;2023-12-04T00:07:29;100070.97;;;5.82;100.00
8051;BME280;4068;42.158;24.732;2023-12-04T00:09:55;100101.31;;;5.89;100.00
8051;BME280;4068;42.158;24.732;2023-12-04T00:12:20;100105.09;;;5.83;100.00
8051;BME280;4068;42.158;24.732;2023-12-04T00:14:46;100113.38;;;5.76;100.00
8051;BME280;4068;42.158;24.732;2023-12-04T00:17:11;100116.41;;;5.68;100.00
8051;BME280;4068;42.158;24.732;2023-12-04T00:19:37;100107.84;;;5.64;100.00
8051;BME280;4068;42.158;24.732;2023-12-04T00:22:02;100120.94;;;5.66;100.00
8051;BME280;4068;42.158;24.732;2023-12-04T00:24:28;100126.19;;;5.66;100.00
8051;BME280;4068;42.158;24.732;2023-12-04T00:26:54;100140.44;;;5.62;100.00
8051;BME280;4068;42.158;24.732;2023-12-04T00:29:19;100143.75;;;5.48;100.00
8051;BME280;4068;42.158;24.732;2023-12-04T00:31:45;100157.56;;;5.51;100.00
8051;BME280;4068;42.158;24.732;2023-12-04T00:34:10;100163.31;;;5.42;100.00
8051;BME280;4068;42.158;24.732;2023-12-04T00:36:37;100168.56;;;5.42;100.00
8051;BME280;4068;42.158;24.732;2023-12-04T00:39:02;100162.69;;;5.37;100.00
8051;BME280;4068;42.158;24.732;2023-12-04T00:41:29;100137.56;;;5.12;100.00
8051;BME280;4068;42.158;24.732;2023-12-04T00:43:54;100179.53;;;5.33;100.00
8051;BME280;4068;42.158;24.732;2023-12-04T00:46:20;100169.09;;;5.31;100.00
8051;BME280;4068;42.158;24.732;2023-12-04T00:48:45;100168.25;;;5.31;100.00
8051;BME280;4068;42.158;24.732;2023-12-04T00:51:11;100159.59;;;5.29;100.00
8051;BME280;4068;42.158;24.732;2023-12-04T00:53:37;100158.72;;;5.28;100.00
8051;BME280;4068;42.158;24.732;2023-12-04T00:56:02;100150.41;;;5.18;100.00
8051;BME280;4068;42.158;24.732;2023-12-04T00:58:28;100171.25;;;5.23;100.00
8051;BME280;4068;42.158;24.732;2023-12-04T01:00:53;100168.56;;;5.25;100.00
8051;BME280;4068;42.158;24.732;2023-12-04T01:03:19;100179.34;;;5.18;100.00
8051;BME280;4068;42.158;24.732;2023-12-04T01:05:44;100183.75;;;5.18;100.00
8051;BME280;4068;42.158;24.732;2023-12-04T01:08:10;100184.59;;;5.18;100.00
8051;BME280;4068;42.158;24.732;2023-12-04T01:10:35;100189.19;;;5.15;100.00
8051;BME280;4068;42.158;24.732;2023-12-04T01:13:01;100183.75;;;5.18;100.00
8051;BME280;4068;42.158;24.732;2023-12-04T01:15:26;100169.44;;;5.06;100.00
8051;BME280;4068;42.158;24.732;2023-12-04T01:17:52;100141.25;;;4.91;100.00
8051;BME280;4068;42.158;24.732;2023-12-04T01:20:17;100178.94;;;5.09;100.00
8051;BME280;4068;42.158;24.732;2023-12-04T01:22:43;100143.53;;;4.79;100.00
8051;BME280;4068;42.158;24.732;2023-12-04T01:25:08;100186.97;;;5.06;100.00
8051;BME280;4068;42.158;24.732;2023-12-04T01:27:34;100188.53;;;5.10;100.00
8051;BME280;4068;42.158;24.732;2023-12-04T01:30:05;100158.91;;;4.87;100.00
8051;BME280;4068;42.158;24.732;2023-12-04T01:32:31;100153.41;;;4.93;100.00
8051;BME280;4068;42.158;24.732;2023-12-04T01:34:56;100194.66;;;5.10;100.00
8051;BME280;4068;42.158;24.732;2023-12-04T01:37:22;100198.91;;;5.13;100.00
8051;BME280;4068;42.158;24.732;2023-12-04T01:39:47;100194.66;;;5.10;100.00
8051;BME280;4068;42.158;24.732;2023-12-04T01:42:13;100207.81;;;5.10;100.00
8051;BME280;4068;42.158;24.732;2023-12-04T01:44:38;100183.59;;;4.84;100.00
8051;BME280;4068;42.158;24.732;2023-12-04T01:47:04;100210.34;;;4.93;100.00
8051;BME280;4068;42.158;24.732;2023-12-04T01:49:30;100212.75;;;4.78;100.00
8051;BME280;4068;42.158;24.732;2023-12-04T01:51:56;100193.69;;;4.75;100.00
8051;BME280;4068;42.158;24.732;2023-12-04T01:54:22;100209.00;;;4.84;100.00
8051;BME280;4068;42.158;24.732;2023-12-04T01:56:48;100221.31;;;4.83;100.00
8051;BME280;4068;42.158;24.732;2023-12-04T01:59:14;100224.09;;;4.80;100.00
8051;BME280;4068;42.158;24.732;2023-12-04T02:01:41;100213.28;;;4.87;100.00
8051;BME280;4068;42.158;24.732;2023-12-04T02:04:07;100214.19;;;4.86;100.00
8051;BME280;4068;42.158;24.732;2023-12-04T02:06:33;100205.53;;;4.83;100.00
8051;BME280;4068;42.158;24.732;2023-12-04T02:08:58;100217.81;;;4.83;100.00
8051;BME280;4068;42.158;24.732;2023-12-04T02:11:24;100224.84;;;4.82;100.00
8051;BME280;4068;42.158;24.732;2023-12-04T02:13:49;100221.56;;;4.77;100.00
8051;BME280;4068;42.158;24.732;2023-12-04T02:16:16;100210.28;;;4.75;100.00
8051;BME280;4068;42.158;24.732;2023-12-04T02:18:44;100200.63;;;4.76;100.00
8051;BME280;4068;42.158;24.732;2023-12-04T02:21:09;100216.38;;;4.76;100.00
8051;BME280;4068;42.158;24.732;2023-12-04T02:23:35;100201.06;;;4.66;100.00
8051;BME280;4068;42.158;24.732;2023-12-04T02:26:13;100226.56;;;4.83;100.00
8051;BME280;4068;42.158;24.732;2023-12-04T02:28:46;100234.22;;;4.88;100.00
8051;BME280;4068;42.158;24.732;2023-12-04T02:31:16;100230.69;;;4.89;100.00
8051;BME280;4068;42.158;24.732;2023-12-04T02:33:45;100237.59;;;4.92;100.00
8051;BME280;4068;42.158;24.732;2023-12-04T02:36:12;100229.19;;;4.83;100.00
8051;BME280;4068;42.158;24.732;2023-12-04T02:38:38;100262.22;;;4.89;99.36
8051;BME280;4068;42.158;24.732;2023-12-04T02:41:04;100243.97;;;4.86;98.90
8051;BME280;4068;42.158;24.732;2023-12-04T02:43:30;100258.09;;;4.83;99.80
8051;BME280;4068;42.158;24.732;2023-12-04T02:45:55;100256.97;;;4.89;100.00
8051;BME280;4068;42.158;24.732;2023-12-04T02:48:21;100238.53;;;4.70;97.97
8051;BME280;4068;42.158;24.732;2023-12-04T02:50:46;100260.44;;;4.90;98.13
8051;BME280;4068;42.158;24.732;2023-12-04T02:53:12;100245.41;;;4.93;98.02
8051;BME280;4068;42.158;24.732;2023-12-04T02:55:37;100240.25;;;4.90;96.14
8051;BME280;4068;42.158;24.732;2023-12-04T02:58:02;100233.53;;;4.84;96.40
8051;BME280;4068;42.158;24.732;2023-12-04T03:00:28;100242.25;;;4.85;96.42
8051;BME280;4068;42.158;24.732;2023-12-04T03:02:54;100239.69;;;4.83;96.81
8051;BME280;4068;42.158;24.732;2023-12-04T03:05:19;100244.31;;;4.78;96.79
8051;BME280;4068;42.158;24.732;2023-12-04T03:07:45;100256.59;;;4.78;96.97
8051;BME280;4068;42.158;24.732;2023-12-04T03:10:11;100265.81;;;4.68;97.36
8051;BME280;4068;42.158;24.732;2023-12-04T03:12:36;100235.38;;;4.43;96.98
8051;BME280;4068;42.158;24.732;2023-12-04T03:15:02;100277.63;;;4.57;97.77
8051;BME280;4068;42.158;24.732;2023-12-04T03:17:28;100285.53;;;4.57;98.96
8051;BME280;4068;42.158;24.732;2023-12-04T03:19:53;100285.03;;;4.49;98.67
8051;BME280;4068;42.158;24.732;2023-12-04T03:22:19;100295.06;;;4.39;98.09
8051;BME280;4068;42.158;24.732;2023-12-04T03:24:44;100303.09;;;4.36;98.07
8051;BME280;4068;42.158;24.732;2023-12-04T03:27:11;100299.66;;;4.34;98.48
8051;BME280;4068;42.158;24.732;2023-12-04T03:29:36;100309.38;;;4.32;98.00
8051;BME280;4068;42.158;24.732;2023-12-04T03:32:02;100314.63;;;4.32;97.90
8051;BME280;4068;42.158;24.732;2023-12-04T03:34:27;100305.88;;;4.31;97.99
8051;BME280;4068;42.158;24.732;2023-12-04T03:36:53;100324.19;;;4.33;97.61
8051;BME280;4068;42.158;24.732;2023-12-04T03:39:18;100316.66;;;4.25;97.41
8051;BME280;4068;42.158;24.732;2023-12-04T03:41:44;100324.59;;;4.24;96.16
8051;BME280;4068;42.158;24.732;2023-12-04T03:44:10;100311.47;;;4.24;96.56
8051;BME280;4068;42.158;24.732;2023-12-04T03:46:35;100317.69;;;4.21;95.79
8051;BME280;4068;42.158;24.732;2023-12-04T03:49:01;100324.59;;;4.24;95.14
8051;BME280;4068;42.158;24.732;2023-12-04T03:51:26;100315.88;;;4.23;95.61
8051;BME280;4068;42.158;24.732;2023-12-04T03:53:52;100319.28;;;4.25;95.97
8051;BME280;4068;42.158;24.732;2023-12-04T03:56:17;100299.66;;;4.13;96.05
8051;BME280;4068;42.158;24.732;2023-12-04T03:58:42;100289.22;;;4.12;95.34
8051;BME280;4068;42.158;24.732;2023-12-04T04:01:08;100328.75;;;4.29;94.94
8051;BME280;4068;42.158;24.732;2023-12-04T04:03:34;100327.03;;;4.28;94.60
8051;BME280;4068;42.158;24.732;2023-12-04T04:05:59;100334.00;;;4.29;93.44
8051;BME280;4068;42.158;24.732;2023-12-04T04:08:25;100322.88;;;4.23;92.05
8051;BME280;4068;42.158;24.732;2023-12-04T04:10:50;100322.09;;;4.21;92.11
8051;BME280;4068;42.158;24.732;2023-12-04T04:13:15;100282.56;;;4.03;91.57
8051;BME280;4068;42.158;24.732;2023-12-04T04:15:41;100320.25;;;4.23;92.45
8051;BME280;4068;42.158;24.732;2023-12-04T04:18:07;100326.25;;;4.26;91.68
8051;BME280;4068;42.158;24.732;2023-12-04T04:20:32;100340.03;;;4.31;91.72
8051;BME280;4068;42.158;24.732;2023-12-04T04:22:58;100351.34;;;4.34;91.33
8051;BME280;4068;42.158;24.732;2023-12-04T04:25:23;100355.91;;;4.28;91.08
8051;BME280;4068;42.158;24.732;2023-12-04T04:27:49;100361.22;;;4.27;91.37
8051;BME280;4068;42.158;24.732;2023-12-04T04:30:14;100312.38;;;4.02;91.43
8051;BME280;4068;42.158;24.732;2023-12-04T04:32:41;100356.13;;;4.24;90.37
8051;BME280;4068;42.158;24.732;2023-12-04T04:35:07;100361.72;;;4.14;90.37
8051;BME280;4068;42.158;24.732;2023-12-04T04:37:32;100366.31;;;4.09;91.24
8051;BME280;4068;42.158;24.732;2023-12-04T04:39:58;100370.06;;;4.04;90.97
8051;BME280;4068;42.158;24.732;2023-12-04T04:42:23;100366.47;;;4.06;90.48
8051;BME280;4068;42.158;24.732;2023-12-04T04:44:49;100349.97;;;4.03;90.93
8051;BME280;4068;42.158;24.732;2023-12-04T04:47:14;100373.66;;;4.01;90.29
8051;BME280;4068;42.158;24.732;2023-12-04T04:49:40;100383.38;;;3.99;89.01
8051;BME280;4068;42.158;24.732;2023-12-04T04:52:07;100343.13;;;3.76;89.24
8051;BME280;4068;42.158;24.732;2023-12-04T04:54:32;100382.81;;;3.91;89.06
8051;BME280;4068;42.158;24.732;2023-12-04T04:56:58;100385.66;;;3.85;88.52
8051;BME280;4068;42.158;24.732;2023-12-04T04:59:23;100384.03;;;3.82;89.19
8051;BME280;4068;42.158;24.732;2023-12-04T05:01:49;100392.69;;;3.84;89.51
8051;BME280;4068;42.158;24.732;2023-12-04T05:04:14;100384.94;;;3.81;89.37
8051;BME280;4068;42.158;24.732;2023-12-04T05:06:40;100402.75;;;3.73;88.20
8051;BME280;4068;42.158;24.732;2023-12-04T05:09:05;100412.44;;;3.71;88.81
8051;BME280;4068;42.158;24.732;2023-12-04T05:11:31;100394.38;;;3.63;88.79
8051;BME280;4068;42.158;24.732;2023-12-04T05:13:56;100421.09;;;3.73;89.38
8051;BME280;4068;42.158;24.732;2023-12-04T05:16:22;100406.88;;;3.56;89.59
8051;BME280;4068;42.158;24.732;2023-12-04T05:18:47;100425.78;;;3.65;89.21
8051;BME280;4068;42.158;24.732;2023-12-04T05:21:13;100392.44;;;3.44;90.06
8051;BME280;4068;42.158;24.732;2023-12-04T05:23:39;100438.22;;;3.59;90.32
8051;BME280;4068;42.158;24.732;2023-12-04T05:26:05;100442.50;;;3.62;89.72
8051;BME280;4068;42.158;24.732;2023-12-04T05:28:31;100412.91;;;3.35;90.86
8051;BME280;4068;42.158;24.732;2023-12-04T05:30:57;100453.03;;;3.60;89.74
8051;BME280;4068;42.158;24.732;2023-12-04T05:33:22;100447.25;;;3.52;89.22
8051;BME280;4068;42.158;24.732;2023-12-04T05:35:48;100428.19;;;3.47;88.73
8051;BME280;4068;42.158;24.732;2023-12-04T05:38:14;100449.28;;;3.68;88.08
8051;BME280;4068;42.158;24.732;2023-12-04T05:40:39;100457.13;;;3.69;87.07
8051;BME280;4068;42.158;24.732;2023-12-04T05:43:05;100460.63;;;3.68;87.12
8051;BME280;4068;42.158;24.732;2023-12-04T05:45:30;100460.69;;;3.67;86.46
8051;BME280;4068;42.158;24.732;2023-12-04T05:47:56;100454.75;;;3.61;86.76
8051;BME280;4068;42.158;24.732;2023-12-04T05:50:21;100468.44;;;3.70;87.47
8051;BME280;4068;42.158;24.732;2023-12-04T05:52:47;100463.31;;;3.67;87.64
8051;BME280;4068;42.158;24.732;2023-12-04T05:55:12;100461.38;;;3.72;87.80
8051;BME280;4068;42.158;24.732;2023-12-04T05:57:39;100471.59;;;3.79;87.50
8051;BME280;4068;42.158;24.732;2023-12-04T06:00:06;100473.56;;;3.73;86.98
8051;BME280;4068;42.158;24.732;2023-12-04T06:02:41;100488.41;;;3.74;85.34
8051;BME280;4068;42.158;24.732;2023-12-04T06:05:07;100479.13;;;3.65;83.54
8051;BME280;4068;42.158;24.732;2023-12-04T06:07:33;100495.72;;;3.66;83.11
8051;BME280;4068;42.158;24.732;2023-12-04T06:09:59;100490.53;;;3.64;82.39
8051;BME280;4068;42.158;24.732;2023-12-04T06:12:24;100486.25;;;3.61;83.32
8051;BME280;4068;42.158;24.732;2023-12-04T06:14:50;100487.59;;;3.72;83.70
8051;BME280;4068;42.158;24.732;2023-12-04T06:17:16;100458.41;;;3.57;84.45
8051;BME280;4068;42.158;24.732;2023-12-04T06:19:41;100489.72;;;3.86;84.69
8051;BME280;4068;42.158;24.732;2023-12-04T06:22:07;100494.78;;;3.90;84.86
8051;BME280;4068;42.158;24.732;2023-12-04T06:24:33;100496.13;;;3.78;84.26
8051;BME280;4068;42.158;24.732;2023-12-04T06:26:59;100465.72;;;3.73;84.73
8051;BME280;4068;42.158;24.732;2023-12-04T06:29:24;100501.38;;;4.02;84.69
8051;BME280;4068;42.158;24.732;2023-12-04T06:31:50;100509.31;;;4.01;85.09
8051;BME280;4068;42.158;24.732;2023-12-04T06:34:16;100505.88;;;3.98;85.32
8051;BME280;4068;42.158;24.732;2023-12-04T06:36:42;100474.53;;;3.94;84.14
8051;BME280;4068;42.158;24.732;2023-12-04T06:39:11;100510.91;;;4.27;82.19
8051;BME280;4068;42.158;24.732;2023-12-04T06:41:40;100528.13;;;4.34;81.05
8051;BME280;4068;42.158;24.732;2023-12-04T06:44:07;100520.25;;;4.34;80.98
8051;BME280;4068;42.158;24.732;2023-12-04T06:46:37;100529.94;;;4.34;79.10
8051;BME280;4068;42.158;24.732;2023-12-04T06:49:04;100481.84;;;4.09;79.73
8051;BME280;4068;42.158;24.732;2023-12-04T06:51:29;100524.81;;;4.29;80.11
8051;BME280;4068;42.158;24.732;2023-12-04T06:53:55;100523.97;;;4.28;80.34
8051;BME280;4068;42.158;24.732;2023-12-04T06:56:20;100513.59;;;4.25;80.82
8051;BME280;4068;42.158;24.732;2023-12-04T06:58:46;100530.50;;;4.42;80.07
8051;BME280;4068;42.158;24.732;2023-12-04T07:01:11;100534.88;;;4.41;80.48
8051;BME280;4068;42.158;24.732;2023-12-04T07:03:37;100539.84;;;4.49;79.54
8051;BME280;4068;42.158;24.732;2023-12-04T07:06:03;100544.97;;;4.52;79.14
8051;BME280;4068;42.158;24.732;2023-12-04T07:08:29;100538.38;;;4.42;79.71
8051;BME280;4068;42.158;24.732;2023-12-04T07:10:54;100553.06;;;4.46;79.68
8051;BME280;4068;42.158;24.732;2023-12-04T07:13:20;100542.16;;;4.57;79.94
8051;BME280;4068;42.158;24.732;2023-12-04T07:15:45;100549.84;;;4.61;79.18
8051;BME280;4068;42.158;24.732;2023-12-04T07:18:11;100542.72;;;4.65;78.55
8051;BME280;4068;42.158;24.732;2023-12-04T07:20:36;100514.94;;;4.36;78.51
8051;BME280;4068;42.158;24.732;2023-12-04T07:23:02;100549.28;;;4.75;80.00
8051;BME280;4068;42.158;24.732;2023-12-04T07:25:27;100560.94;;;4.90;78.94
8051;BME280;4068;42.158;24.732;2023-12-04T07:27:53;100552.06;;;5.15;77.49
8051;BME280;4068;42.158;24.732;2023-12-04T07:30:18;100554.38;;;5.23;76.56
8051;BME280;4068;42.158;24.732;2023-12-04T07:32:46;100557.06;;;5.21;75.57
8051;BME280;4068;42.158;24.732;2023-12-04T07:35:11;100523.16;;;4.93;76.21
8051;BME280;4068;42.158;24.732;2023-12-04T07:37:37;100556.22;;;5.21;76.06
8051;BME280;4068;42.158;24.732;2023-12-04T07:40:03;100543.50;;;5.10;75.12
8051;BME280;4068;42.158;24.732;2023-12-04T07:42:31;100558.72;;;5.24;75.17
8051;BME280;4068;42.158;24.732;2023-12-04T07:44:56;100544.78;;;5.22;74.58
8051;BME280;4068;42.158;24.732;2023-12-04T07:47:22;100554.97;;;5.29;73.91
8051;BME280;4068;42.158;24.732;2023-12-04T07:49:48;100561.94;;;5.30;73.29
8051;BME280;4068;42.158;24.732;2023-12-04T07:52:14;100566.66;;;5.43;72.46
8051;BME280;4068;42.158;24.732;2023-12-04T07:54:40;100566.28;;;5.52;71.04
8051;BME280;4068;42.158;24.732;2023-12-04T07:57:05;100561.72;;;5.56;71.21
8051;BME280;4068;42.158;24.732;2023-12-04T07:59:31;100562.25;;;5.64;71.21
8051;BME280;4068;42.158;24.732;2023-12-04T08:01:56;100560.81;;;5.77;70.96
8051;BME280;4068;42.158;24.732;2023-12-04T08:04:22;100566.91;;;5.98;69.82
8051;BME280;4068;42.158;24.732;2023-12-04T08:06:47;100559.31;;;6.11;68.07
8051;BME280;4068;42.158;24.732;2023-12-04T08:09:13;100561.03;;;6.12;67.64
8051;BME280;4068;42.158;24.732;2023-12-04T08:11:38;100559.03;;;6.17;66.69
8051;BME280;4068;42.158;24.732;2023-12-04T08:14:04;100554.75;;;6.15;65.86
8051;BME280;4068;42.158;24.732;2023-12-04T08:16:29;100552.63;;;6.23;65.12
8051;BME280;4068;42.158;24.732;2023-12-04T08:18:55;100544.13;;;6.35;64.75
8051;BME280;4068;42.158;24.732;2023-12-04T08:21:21;100550.06;;;6.21;65.19
8051;BME280;4068;42.158;24.732;2023-12-04T08:23:46;100538.25;;;6.30;65.27
8051;BME280;4068;42.158;24.732;2023-12-04T08:26:12;100549.47;;;6.34;64.63
8051;BME280;4068;42.158;24.732;2023-12-04T08:28:37;100549.56;;;6.32;64.60
8051;BME280;4068;42.158;24.732;2023-12-04T08:31:07;100550.13;;;6.39;64.85
8051;BME280;4068;42.158;24.732;2023-12-04T08:33:33;100551.34;;;6.32;64.71
8051;BME280;4068;42.158;24.732;2023-12-04T08:36:00;100554.94;;;6.48;65.16
8051;BME280;4068;42.158;24.732;2023-12-04T08:38:26;100547.47;;;6.58;64.84
8051;BME280;4068;42.158;24.732;2023-12-04T08:40:52;100519.97;;;6.64;64.96
8051;BME280;4068;42.158;24.732;2023-12-04T08:43:18;100561.13;;;7.03;63.94
8051;BME280;4068;42.158;24.732;2023-12-04T08:45:45;100559.91;;;7.10;62.69
8051;BME280;4068;42.158;24.732;2023-12-04T08:48:10;100541.69;;;7.05;62.92
8051;BME280;4068;42.158;24.732;2023-12-04T08:50:36;100561.22;;;7.19;62.66
8051;BME280;4068;42.158;24.732;2023-12-04T08:53:03;100573.41;;;7.39;62.76
8051;BME280;4068;42.158;24.732;2023-12-04T08:55:29;100573.00;;;7.47;62.20
8051;BME280;4068;42.158;24.732;2023-12-04T08:57:54;100572.31;;;7.43;62.80
8051;BME280;4068;42.158;24.732;2023-12-04T09:00:20;100575.44;;;7.51;61.80
8051;BME280;4068;42.158;24.732;2023-12-04T09:02:47;100566.88;;;7.11;63.04
8051;BME280;4068;42.158;24.732;2023-12-04T09:05:13;100559.06;;;7.27;63.20
8051;BME280;4068;42.158;24.732;2023-12-04T09:07:38;100549.25;;;7.47;61.99
8051;BME280;4068;42.158;24.732;2023-12-04T09:10:04;100564.75;;;7.70;62.04
8051;BME280;4068;42.158;24.732;2023-12-04T09:12:30;100560.03;;;7.59;62.83
8051;BME280;4068;42.158;24.732;2023-12-04T09:14:56;100543.47;;;7.73;63.96
8051;BME280;4068;42.158;24.732;2023-12-04T09:17:21;100562.63;;;7.94;62.12
8051;BME280;4068;42.158;24.732;2023-12-04T09:19:47;100510.94;;;7.73;61.96
8051;BME280;4068;42.158;24.732;2023-12-04T09:22:12;100546.31;;;8.20;61.95
8051;BME280;4068;42.158;24.732;2023-12-04T09:24:38;100534.19;;;8.16;60.80
8051;BME280;4068;42.158;24.732;2023-12-04T09:27:03;100545.50;;;8.18;61.31
8051;BME280;4068;42.158;24.732;2023-12-04T09:29:30;100543.16;;;8.45;61.43
8051;BME280;4068;42.158;24.732;2023-12-04T09:31:55;100539.25;;;8.68;60.31
8051;BME280;4068;42.158;24.732;2023-12-04T09:34:21;100539.66;;;8.92;59.96
8051;BME280;4068;42.158;24.732;2023-12-04T09:36:47;100529.56;;;9.13;58.78
8051;BME280;4068;42.158;24.732;2023-12-04T09:39:13;100533.75;;;9.18;58.64
8051;BME280;4068;42.158;24.732;2023-12-04T09:41:41;100522.13;;;9.20;57.85
8051;BME280;4068;42.158;24.732;2023-12-04T09:44:07;100538.53;;;9.27;58.03
8051;BME280;4068;42.158;24.732;2023-12-04T09:46:34;100531.22;;;9.30;57.41
8051;BME280;4068;42.158;24.732;2023-12-04T09:49:00;100531.16;;;9.32;58.43
8051;BME280;4068;42.158;24.732;2023-12-04T09:51:27;100494.53;;;9.24;58.76
8051;BME280;4068;42.158;24.732;2023-12-04T09:53:54;100532.44;;;9.55;57.48
8051;BME280;4068;42.158;24.732;2023-12-04T09:56:22;100509.91;;;9.48;57.62
8051;BME280;4068;42.158;24.732;2023-12-04T09:58:52;100527.69;;;9.60;57.75
8051;BME280;4068;42.158;24.732;2023-12-04T10:01:18;100502.72;;;9.64;57.71
8051;BME280;4068;42.158;24.732;2023-12-04T10:03:45;100519.47;;;9.79;57.53
8051;BME280;4068;42.158;24.732;2023-12-04T10:06:15;100521.16;;;9.80;57.18
8051;BME280;4068;42.158;24.732;2023-12-04T10:08:45;100508.00;;;9.64;57.17
8051;BME280;4068;42.158;24.732;2023-12-04T10:11:12;100510.53;;;9.37;57.91
8051;BME280;4068;42.158;24.732;2023-12-04T10:13:37;100483.66;;;9.14;59.19
8051;BME280;4068;42.158;24.732;2023-12-04T10:16:03;100501.47;;;9.41;60.50
8051;BME280;4068;42.158;24.732;2023-12-04T10:18:31;100514.91;;;9.38;60.31
8051;BME280;4068;42.158;24.732;2023-12-04T10:20:57;100507.25;;;9.48;59.30
8051;BME280;4068;42.158;24.732;2023-12-04T10:23:39;100512.28;;;9.67;59.65
8051;BME280;4068;42.158;24.732;2023-12-04T10:26:06;100513.41;;;9.63;59.18
8051;BME280;4068;42.158;24.732;2023-12-04T10:28:33;100496.88;;;9.59;59.85
8051;BME280;4068;42.158;24.732;2023-12-04T10:30:59;100510.66;;;9.79;60.30
8051;BME280;4068;42.158;24.732;2023-12-04T10:33:25;100510.19;;;9.87;59.88
8051;BME280;4068;42.158;24.732;2023-12-04T10:35:54;100502.88;;;10.05;59.09
8051;BME280;4068;42.158;24.732;2023-12-04T10:38:20;100511.44;;;9.95;58.60
8051;BME280;4068;42.158;24.732;2023-12-04T10:40:46;100483.88;;;9.55;61.07
8051;BME280;4068;42.158;24.732;2023-12-04T10:43:18;100493.44;;;10.00;61.31
8051;BME280;4068;42.158;24.732;2023-12-04T10:45:46;100493.63;;;10.12;60.39
8051;BME280;4068;42.158;24.732;2023-12-04T10:48:13;100490.38;;;10.21;60.39
8051;BME280;4068;42.158;24.732;2023-12-04T10:50:47;100471.16;;;10.17;60.82
8051;BME280;4068;42.158;24.732;2023-12-04T10:53:15;100489.03;;;10.28;59.54
8051;BME280;4068;42.158;24.732;2023-12-04T10:55:41;100487.16;;;10.30;60.40
8051;BME280;4068;42.158;24.732;2023-12-04T10:58:11;100479.75;;;10.35;60.09
8051;BME280;4068;42.158;24.732;2023-12-04T11:00:41;100492.25;;;10.33;59.32
8051;BME280;4068;42.158;24.732;2023-12-04T11:03:09;100489.72;;;10.03;61.06
8051;BME280;4068;42.158;24.732;2023-12-04T11:05:41;100497.59;;;10.05;60.64
8051;BME280;4068;42.158;24.732;2023-12-04T11:08:09;100493.63;;;10.12;60.16
8051;BME280;4068;42.158;24.732;2023-12-04T11:10:59;100495.09;;;10.16;59.72
8051;BME280;4068;42.158;24.732;2023-12-04T11:13:28;100464.09;;;10.04;60.70
8051;BME280;4068;42.158;24.732;2023-12-04T11:16:00;100500.25;;;10.19;58.96
8051;BME280;4068;42.158;24.732;2023-12-04T11:18:27;100498.63;;;10.16;58.81
8051;BME280;4068;42.158;24.732;2023-12-04T11:21:07;100493.91;;;10.07;58.95
8051;BME280;4068;42.158;24.732;2023-12-04T11:23:33;100497.47;;;10.21;59.25
8051;BME280;4068;42.158;24.732;2023-12-04T11:26:00;100493.69;;;10.10;59.21
8051;BME280;4068;42.158;24.732;2023-12-04T11:28:27;100493.63;;;10.12;60.15
8051;BME280;4068;42.158;24.732;2023-12-04T11:30:53;100490.38;;;10.21;59.70
8051;BME280;4068;42.158;24.732;2023-12-04T11:33:20;100488.09;;;10.29;59.24
8051;BME280;4068;42.158;24.732;2023-12-04T11:35:46;100470.09;;;10.20;59.32
8051;BME280;4068;42.158;24.732;2023-12-04T11:38:14;100495.38;;;10.40;59.49
8051;BME280;4068;42.158;24.732;2023-12-04T11:40:41;100500.09;;;10.49;58.57
8051;BME280;4068;42.158;24.732;2023-12-04T11:43:27;100491.38;;;10.33;57.93
8051;BME280;4068;42.158;24.732;2023-12-04T11:46:07;100506.34;;;10.48;58.81
8051;BME280;4068;42.158;24.732;2023-12-04T11:48:33;100494.47;;;10.54;59.42
8051;BME280;4068;42.158;24.732;2023-12-04T11:50:59;100477.72;;;10.53;58.04
8051;BME280;4068;42.158;24.732;2023-12-04T11:53:25;100497.47;;;10.62;57.67
8051;BME280;4068;42.158;24.732;2023-12-04T11:55:55;100488.34;;;10.53;58.47
8051;BME280;4068;42.158;24.732;2023-12-04T11:58:22;100503.63;;;10.35;58.34
8051;BME280;4068;42.158;24.732;2023-12-04T12:00:47;100506.53;;;10.45;59.07
8051;BME280;4068;42.158;24.732;2023-12-04T12:03:14;100507.44;;;10.59;58.38
8051;BME280;4068;42.158;24.732;2023-12-04T12:05:40;100507.25;;;10.62;57.70
8051;BME280;4068;42.158;24.732;2023-12-04T12:08:07;100505.84;;;10.56;57.97
8051;BME280;4068;42.158;24.732;2023-12-04T12:10:33;100516.69;;;10.39;57.33
8051;BME280;4068;42.158;24.732;2023-12-04T12:12:59;100513.38;;;10.35;58.05
8051;BME280;4068;42.158;24.732;2023-12-04T12:15:25;100512.25;;;10.25;58.66
8051;BME280;4068;42.158;24.732;2023-12-04T12:17:51;100497.47;;;10.21;58.81
8051;BME280;4068;42.158;24.732;2023-12-04T12:20:17;100475.50;;;10.18;59.38
8051;BME280;4068;42.158;24.732;2023-12-04T12:22:43;100488.22;;;10.13;60.43
8051;BME280;4068;42.158;24.732;2023-12-04T12:25:10;100496.56;;;9.93;60.54
8051;BME280;4068;42.158;24.732;2023-12-04T12:27:36;100470.34;;;10.02;60.49
8051;BME280;4068;42.158;24.732;2023-12-04T12:30:02;100496.34;;;10.10;59.87
8051;BME280;4068;42.158;24.732;2023-12-04T12:32:31;100491.63;;;10.15;59.11
8051;BME280;4068;42.158;24.732;2023-12-04T12:34:56;100478.28;;;10.02;59.08
8051;BME280;4068;42.158;24.732;2023-12-04T12:37:22;100490.50;;;10.05;59.28
8051;BME280;4068;42.158;24.732;2023-12-04T12:39:48;100453.53;;;9.60;60.79
8051;BME280;4068;42.158;24.732;2023-12-04T12:42:29;100490.50;;;10.05;61.05
8051;BME280;4068;42.158;24.732;2023-12-04T12:44:55;100485.28;;;10.18;60.70
8051;BME280;4068;42.158;24.732;2023-12-04T12:47:24;100491.63;;;10.15;59.19
8051;BME280;4068;42.158;24.732;2023-12-04T12:49:50;100483.88;;;10.12;59.73
8051;BME280;4068;42.158;24.732;2023-12-04T12:52:15;100487.56;;;10.10;59.91
8051;BME280;4068;42.158;24.732;2023-12-04T12:54:42;100456.53;;;9.83;60.22
8051;BME280;4068;42.158;24.732;2023-12-04T12:57:08;100485.75;;;9.96;59.77
8051;BME280;4068;42.158;24.732;2023-12-04T12:59:34;100492.88;;;9.95;59.77
8051;BME280;4068;42.158;24.732;2023-12-04T13:02:00;100486.91;;;9.92;59.01